Latest Coastal Weather Observations for Sydney Airport

IDN60701

Issued at 5:21 am EDT Friday 18 October 2019 (issued every 10 minutes, with the page automatically refreshed every 10 minutes)

About coastal observations | Map of coastal stations | Coastal observations for NSW | Marine services | Other Formats
Station Details ID: 066037 Name: SYDNEY AIRPORT AMO Lat: -33.95 Lon: 151.17 Height: 6.0 m
Data from the previous 72 hours. | See also: Recent months at Sydney Airport
Date/Time
EDT
Wind Sea
Height
m
Swell Vis
km
Cloud Weather Temp
°C
Press
hPa
Rain since
9am
mm
Dir  Spd
kts
Gust
kts
Height
m
Period
s
Dir
18/05:00am WNW 9 11 - - - - 10 - - 14.3 1015.0 0.0
18/04:30am WNW 9 11 - - - - 10 - - 15.0 1014.7 0.0
18/04:00am NW 8 10 - - - - 10 - - 14.9 1014.4 0.0
18/03:30am WNW 14 16 - - - - 10 - - 14.9 1014.4 0.0
18/03:00am WNW 10 14 - - - - 40 Clear Fine 14.8 1014.4 0.0
18/02:30am WNW 9 11 - - - - 10 - - 15.4 1014.4 0.0
18/02:00am W 12 16 - - - - 10 - - 15.4 1014.4 0.0
18/01:30am W 13 18 - - - - 10 - - 15.5 1014.6 0.0
18/01:00am W 11 16 - - - - 10 - - 16.0 1014.5 0.0
18/12:30am WNW 14 19 - - - - 10 - - 16.2 1014.4 0.0
18/12:00am WNW 14 19 - - - - 40 Clear Fine 16.3 1014.4 0.0
 
Date/Time
EDT
Wind Sea
Height
m
Swell Vis
km
Cloud Weather Temp
°C
Press
hPa
Rain since
9am
mm
Dir  Spd
kts
Gust
kts
Height
m
Period
s
Dir
17/11:30pm W 15 18 - - - - 10 - - 16.9 1014.3 0.0
17/11:00pm W 17 26 - - - - 10 - - 17.0 1014.1 0.0
17/10:45pm W 15 30 - - - - 10 - - 17.0 1013.9 0.0
17/10:30pm W 15 22 - - - - 10 - - 17.2 1013.8 0.0
17/10:00pm WSW 13 17 - - - - 10 - - 17.5 1013.2 0.0
17/09:30pm W 19 23 - - - - 10 - - 18.1 1012.6 0.0
17/09:00pm W 17 23 - - - - 40 Mostly clear Fine 18.1 1012.3 0.0
17/08:30pm WSW 17 22 - - - - 10 - - 18.4 1012.1 0.0
17/08:00pm WSW 17 24 - - - - 10 - - 19.1 1011.4 0.0
17/07:30pm WSW 19 24 - - - - 10 - - 19.8 1010.7 0.0
17/07:00pm WSW 21 28 - - - - 10 - - 20.3 1010.0 0.0
17/06:42pm W 18 28 - - - - 10 - - 21.1 1009.5 0.0
17/06:30pm W 19 27 - - - - 10 - - 21.1 1009.3 0.0
17/06:00pm W 23 31 - - - - 30 Mostly clear Fine 21.7 1008.7 0.0
17/05:30pm W 25 33 - - - - 10 - - 22.6 1008.3 0.0
17/05:00pm WSW 30 42 - - - - 10 - - 23.3 1007.7 0.0
17/04:30pm W 26 38 - - - - 10 - - 23.2 1007.0 0.0
17/04:05pm W 26 36 - - - - 10 - - 24.7 1006.6 0.0
17/04:00pm WNW 28 37 - - - - 10 - - 24.7 1006.6 0.0
17/03:30pm W 29 38 - - - - 10 - - 25.3 1006.1 0.0
17/03:00pm W 30 41 - - - - 30 Mostly clear Fine 26.0 1005.6 0.0
17/02:30pm W 26 32 - - - - 10 - - 27.6 1005.4 0.0
17/02:04pm W 23 33 - - - - 10 - - 27.4 1005.2 0.0
17/02:00pm W 23 29 - - - - 10 - - 28.0 1005.1 0.0
17/01:30pm WNW 19 28 - - - - 10 - - 28.4 1004.9 0.0
17/01:08pm WNW 21 33 - - - - 10 Partly cloudy - 28.8 1004.8 0.0
17/01:00pm WSW 11 22 - - - - 10 Partly cloudy - 28.7 1004.8 0.0
17/12:30pm SSE 9 12 - - - - 10 Partly cloudy - 25.4 1004.9 0.0
17/12:00pm S 7 14 - - - - 30 Partly cloudy Haze 26.7 1005.2 0.0
17/11:30am WSW 11 15 - - - - 10 Partly cloudy - 25.6 1005.5 0.0
17/11:00am WSW 5 8 - - - - 10 - - 25.5 1005.9 0.0
17/10:30am WSW 8 12 - - - - 10 - - 24.4 1006.3 0.0
17/10:00am W 9 16 - - - - 10 - - 23.0 1006.4 0.0
17/09:30am W 8 11 - - - - 10 - - 21.6 1006.6 0.0
17/09:00am WNW 7 10 - - - - 15 Partly cloudy Haze 21.6 1006.5 0.0
17/08:30am WNW 7 10 - - - - 10 Mostly clear - 20.5 1006.7 0.0
17/08:00am WNW 6 8 - - - - 10 Mostly clear - 20.4 1006.5 0.0
17/07:30am WNW 5 7 - - - - 10 Mostly clear - 18.8 1006.5 0.0
17/07:00am NW 4 6 - - - - 10 Mostly clear - 18.6 1006.3 0.0
17/06:30am W 3 5 - - - - 10 Mostly clear - 17.9 1006.4 0.0
17/06:00am W 6 7 - - - - 15 Partly cloudy Haze 17.3 1006.6 0.0
17/05:30am WNW 4 6 - - - - 10 Partly cloudy - 17.6 1006.6 0.0
17/05:00am CALM 0 0 - - - - 10 - - 17.6 1006.3 0.0
17/04:30am SW 4 7 - - - - 10 Mostly clear - 18.0 1007.3 0.0
17/04:00am S 9 12 - - - - 10 Mostly clear - 18.0 1007.3 0.0
17/03:30am SSE 7 9 - - - - 10 Mostly clear - 18.1 1007.6 0.0
17/03:00am SSE 9 14 - - - - 14 Mostly cloudy Showers 18.2 1007.9 0.0
17/02:30am SSE 8 10 - - - - 10 Partly cloudy Showers 18.6 1008.2 0.0
17/02:00am SSE 8 10 - - - - 10 - - 18.7 1008.2 0.0
17/01:30am SSE 9 10 - - - - 10 Partly cloudy - 18.7 1009.4 0.0
17/01:00am SSW 7 9 - - - - 10 - - 19.1 1009.7 0.0
17/12:30am ENE 4 7 - - - - 10 - - 19.2 1009.7 0.0
17/12:00am ENE 5 6 - - - - 25 Mostly cloudy Haze 19.4 1009.2 0.0
 
Date/Time
EDT
Wind Sea
Height
m
Swell Vis
km
Cloud Weather Temp
°C
Press
hPa
Rain since
9am
mm
Dir  Spd
kts
Gust
kts
Height
m
Period
s
Dir
16/11:30pm NE 9 11 - - - - 10 - - 20.5 1009.8 0.0
16/11:00pm ENE 9 11 - - - - 10 - - 20.0 1009.3 0.0
16/10:30pm NE 12 16 - - - - 10 - - 20.4 1009.3 0.0
16/10:00pm NE 10 13 - - - - 10 - - 20.4 1009.2 0.0
16/09:30pm NNW 4 6 - - - - 10 - - 23.4 1009.3 0.0
16/09:00pm NW 7 9 - - - - 30 Mostly cloudy Recent precip. 23.6 1009.5 0.0
16/08:30pm WNW 10 14 - - - - 10 Partly cloudy - 24.4 1009.4 0.0
16/08:19pm W 15 20 - - - - 10 Partly cloudy - 23.8 1010.1 0.0
16/08:00pm NW 5 7 - - - - 10 Partly cloudy - 24.2 1010.4 0.0
16/07:30pm NNW 5 7 - - - - 10 Cloudy - 24.9 1009.5 0.0
16/07:00pm NW 6 8 - - - - 10 Partly cloudy - 25.2 1008.9 0.0
16/06:30pm WNW 3 9 - - - - 10 Partly cloudy - 25.4 1008.2 0.0
16/06:00pm W 7 12 - - - - 30 Mostly cloudy Fine 24.7 1008.2 0.0
16/05:30pm CALM 0 0 - - - - 10 - - 21.3 1008.9 0.0
16/05:00pm SSE 5 9 - - - - 10 - - 20.2 1009.4 0.0
16/04:30pm CALM 0 0 - - - - 10 - - 20.0 1009.6 0.0
16/04:00pm SE 5 7 - - - - 10 - - 20.1 1009.3 0.0
16/03:30pm SSE 7 9 - - - - 10 Partly cloudy - 19.8 1009.6 0.0
16/03:00pm ESE 10 12 - - - - 25 Mostly cloudy Fine 19.9 1009.2 0.0
16/02:30pm ESE 8 10 - - - - 10 - - 20.2 1009.5 0.0
16/02:00pm SSE 7 9 - - - - 10 - - 19.6 1010.2 0.0
16/01:30pm SE 9 12 - - - - 10 - - 20.6 1010.2 0.0
16/01:00pm SSE 9 11 - - - - 10 - - 20.5 1010.2 0.0
16/12:30pm S 9 12 - - - - 10 - - 19.3 1011.1 0.0
16/12:00pm SSE 8 9 - - - - 25 Partly cloudy Haze 20.2 1011.4 0.0
16/11:30am SSE 9 11 - - - - 10 Mostly clear - 20.3 1011.9 0.0
16/11:00am SSE 9 12 - - - - 10 Mostly clear - 19.7 1012.4 0.0
16/10:30am SSE 10 13 - - - - 10 Mostly clear - 19.6 1012.3 0.0
16/10:00am S 12 15 - - - - 10 Partly cloudy - 18.7 1012.6 0.0
16/09:30am S 14 17 - - - - 10 Mostly clear - 18.3 1012.3 0.0
16/09:00am S 13 16 - - - - 20 Mostly cloudy Haze 18.1 1012.8 0.0
16/08:30am S 12 16 - - - - 10 Mostly clear - 18.0 1012.7 0.0
16/08:00am S 14 18 - - - - 10 Mostly clear - 17.7 1012.6 0.0
16/07:30am S 15 18 - - - - 10 Mostly clear - 17.7 1012.4 0.0
16/07:00am S 16 20 - - - - 10 Mostly clear - 17.5 1012.1 0.0
16/06:30am S 17 23 - - - - 10 Mostly clear - 17.6 1011.8 0.0
16/06:00am S 19 24 - - - - 14 Mostly cloudy Haze 18.0 1011.7 0.0
16/05:30am S 17 22 - - - - 10 Partly cloudy - 18.0 1011.2 0.0
16/05:00am S 17 21 - - - - 10 Mostly clear - 18.1 1011.1 0.0
16/04:30am SSW 14 18 - - - - 10 Partly cloudy - 18.3 1010.4 0.0
16/04:00am SSW 12 15 - - - - 10 Partly cloudy - 18.3 1010.6 0.0
16/03:30am SW 5 7 - - - - 8 Mostly cloudy - 18.2 1010.1 0.0
16/03:00am CALM 0 0 - - - - 9 Partly cloudy Haze 18.5 1009.6 0.0
16/02:30am CALM 0 0 - - - - 10 Partly cloudy - 18.8 1009.7 0.0
16/02:00am NNW 5 6 - - - - 10 Partly cloudy - 19.0 1010.2 0.0
16/01:30am N 6 7 - - - - 10 Partly cloudy - 19.3 1010.6 0.0
16/01:00am N 4 6 - - - - 10 Partly cloudy - 19.6 1010.9 0.0
16/12:30am N 6 7 - - - - 10 Partly cloudy - 20.0 1011.2 0.0
16/12:00am NNE 9 11 - - - - 15 Mostly cloudy Haze 20.0 1011.0 0.0
 
Date/Time
EDT
Wind Sea
Height
m
Swell Vis
km
Cloud Weather Temp
°C
Press
hPa
Rain since
9am
mm
Dir  Spd
kts
Gust
kts
Height
m
Period
s
Dir
15/11:30pm NNE 12 16 - - - - 10 Partly cloudy - 20.2 1010.9 0.0
15/11:00pm NE 14 17 - - - - 10 Mostly clear - 20.2 1010.6 0.0
15/10:30pm NNE 14 18 - - - - 10 Mostly clear - 21.0 1011.3 0.0
15/10:00pm NNE 14 19 - - - - 10 Partly cloudy - 20.9 1011.4 0.0
15/09:30pm NNE 15 22 - - - - 10 Mostly cloudy - 21.0 1011.6 0.0
15/09:00pm NNE 16 22 - - - - 18 Partly cloudy Haze 21.0 1011.0 0.0
15/08:30pm NNE 13 20 - - - - 10 Partly cloudy - 21.6 1010.8 0.0
15/08:00pm NNE 16 23 - - - - 10 Mostly clear - 20.8 1010.3 0.0
15/07:30pm NNE 17 25 - - - - 10 Mostly clear - 21.3 1009.9 0.0
15/07:00pm NNE 16 21 - - - - 10 Mostly clear - 21.6 1009.7 0.0
15/06:45pm NE 16 23 - - - - 10 Partly cloudy - 21.8 1009.5 0.0
15/06:30pm NE 17 21 - - - - 10 Partly cloudy - 22.0 1009.3 0.0
15/06:00pm NE 17 22 - - - - 25 Mostly clear Fine 22.4 1009.3 0.0
15/05:30pm NE 17 22 - - - - 10 Mostly clear - 22.5 1009.2 0.0
15/05:00pm NE 18 22 - - - - 10 Mostly clear - 22.4 1009.1 0.0
15/04:30pm NE 17 22 - - - - 10 - - 23.3 1009.1 0.0
15/04:00pm NE 17 22 - - - - 10 - - 23.8 1009.3 0.0
15/03:30pm NE 17 21 - - - - 10 - - 24.6 1009.4 0.0
15/03:00pm NE 15 19 - - - - 30 Mostly clear Fine 25.1 1009.7 0.0
15/02:30pm NE 16 20 - - - - 10 - - 25.5 1010.3 0.0
15/02:00pm NE 13 18 - - - - 10 - - 25.0 1010.9 0.0
15/01:30pm NE 14 17 - - - - 10 - - 24.9 1011.3 0.0
15/01:00pm ENE 13 17 - - - - 10 - - 24.0 1011.5 0.0
15/12:30pm ENE 12 14 - - - - 10 - - 23.6 1011.7 0.0
15/12:00pm E 12 15 - - - - 25 Mostly clear Haze 23.9 1012.0 0.0
15/11:30am SE 7 11 - - - - 10 - - 20.9 1012.4 0.0
15/11:00am SSE 7 9 - - - - 10 - - 21.5 1012.9 0.0
15/10:30am NE 1 5 - - - - 10 - - 22.3 1013.1 0.0
15/10:00am W 4 7 - - - - 10 - - 22.3 1013.5 0.0
15/09:30am W 4 6 - - - - 10 - - 21.0 1013.6 0.0
15/09:00am WNW 4 6 - - - - 18 Mostly cloudy Haze 19.2 1013.6 0.0
15/08:30am WNW 5 7 - - - - 10 - - 17.9 1013.6 0.0
15/08:00am WNW 4 5 - - - - 10 - - 18.0 1013.7 0.0
15/07:30am WNW 5 6 - - - - 10 - - 16.4 1013.5 0.0
15/07:00am WNW 6 8 - - - - 10 - - 16.2 1013.4 0.0
15/06:30am NW 4 6 - - - - 10 - - 16.2 1013.1 0.0
15/06:00am CALM 0 0 - - - - 30 Mostly cloudy Fine 16.3 1013.0 0.0
15/05:30am CALM 0 0 - - - - 10 - - 16.3 1012.8 0.0

Other formats

Comma delimited format used in spreadsheet applications
http://www.bom.gov.au/fwo/IDN60701/IDN60701.94767.axf

JavaScript Object Notation format (JSON) in row-major order
http://www.bom.gov.au/fwo/IDN60701/IDN60701.94767.json

Data quality

Most of these data are generated automatically and are frequently updated. Quality checks on data are not normally performed. It is possible for incorrect values to appear. Refer to information at About Latest Weather Observations and please check the disclaimer before using these data.